Terminal Aerodrome Forecast
Issued by NWS Nashville, TN

Home | Current Version | Previous Version | Text Only | Print | Product List | Glossary On
Versions: 1 2 3 4 5 6 7 8 9 10 11 12 13 14 15 16 17 18 19 20 21 22 23 24 25 26
411
FTUS44 KOHX 261723
TAFCSV
TAF
KCSV 261723Z 2618/2718 20009G14KT P6SM VCSH OVC020
      TEMPO 2618/2620 5SM -SHRA OVC009
     FM262100 21010G15KT P6SM VCSH OVC040
     FM270000 20004KT P6SM BKN060
     FM270900 18003KT 4SM BR BKN060
     FM271300 20008KT P6SM BKN040=

USA.gov is the U.S. government's official web portal to all federal, state and local government web resources and services.